Time;durP1;ratioP1;P1;durP2;ratioP2;P2;SDS_P1;SDS_P2;PMS_P1;PMS_P2;Temp;Humidity;BMP_temperature;BMP_pressure;BME280_temperature;BME280_humidity;BME280_pressure;Samples;Min_cycle;Max_cycle;Signal;HPM_P1;HPM_P2
2021/12/25 00:00:00;;;;;;;1.73;1.63;;;-3.00;99.90;;;;;;5115311;28;20837;-69
2021/12/25 00:02:28;;;;;;;3.93;1.50;;;-3.00;99.90;;;;;;5115037;28;20468;-70
2021/12/25 00:04:54;;;;;;;2.30;1.77;;;-3.00;99.90;;;;;;5115035;28;20453;-70
2021/12/25 00:07:21;;;;;;;1.80;1.70;;;-3.00;99.90;;;;;;5115145;28;20795;-70
2021/12/25 00:09:49;;;;;;;3.67;2.00;;;-3.00;99.90;;;;;;5114839;28;20837;-70
2021/12/25 00:12:16;;;;;;;2.07;1.90;;;-3.10;99.90;;;;;;5115156;28;20806;-70
2021/12/25 00:14:42;;;;;;;3.47;1.60;;;-3.10;99.90;;;;;;5115107;28;20454;-70
2021/12/25 00:17:09;;;;;;;2.40;2.03;;;-3.10;99.90;;;;;;5114934;28;20484;-70
2021/12/25 00:19:36;;;;;;;2.37;1.33;;;-3.10;99.90;;;;;;5114879;28;20505;-70
2021/12/25 00:22:03;;;;;;;1.90;1.70;;;-3.10;99.90;;;;;;5114661;28;20463;-69
2021/12/25 00:24:30;;;;;;;2.03;1.60;;;-3.10;99.90;;;;;;5114978;28;20455;-70
2021/12/25 00:27:03;;;;;;;2.40;2.20;;;-3.10;99.90;;;;;;5115022;28;20452;-70
2021/12/25 00:29:50;;;;;;;3.80;2.30;;;-3.00;99.90;;;;;;5114883;28;20797;-69
2021/12/25 00:32:47;;;;;;;4.10;2.40;;;-3.00;99.90;;;;;;5114882;28;20527;-69
2021/12/25 00:35:14;;;;;;;2.27;2.07;;;-3.00;99.90;;;;;;5114905;28;20796;-70
2021/12/25 00:37:40;;;;;;;2.27;1.60;;;-3.00;99.90;;;;;;5114423;28;20456;-70
2021/12/25 00:40:10;;;;;;;2.00;1.80;;;-3.00;99.90;;;;;;5114684;28;20920;-69
2021/12/25 00:42:38;;;;;;;2.50;2.13;;;-3.00;99.90;;;;;;5114816;28;20466;-70
2021/12/25 00:45:05;;;;;;;3.10;2.03;;;-3.00;99.90;;;;;;5116664;28;20482;-70
2021/12/25 00:47:32;;;;;;;1.40;1.30;;;-3.00;99.90;;;;;;5118168;28;20464;-69
2021/12/25 00:49:59;;;;;;;2.17;1.80;;;-3.00;99.90;;;;;;5118641;28;20459;-70
2021/12/25 00:52:26;;;;;;;1.80;1.50;;;-3.20;99.90;;;;;;5118526;27;20448;-69
2021/12/25 00:54:52;;;;;;;1.80;1.70;;;-3.20;99.90;;;;;;5118407;28;20486;-70
2021/12/25 00:57:19;;;;;;;2.03;1.93;;;-3.30;99.90;;;;;;5118303;28;20491;-70
2021/12/25 00:59:47;;;;;;;6.73;1.97;;;-3.30;99.90;;;;;;5118511;28;20459;-69
2021/12/25 01:02:14;;;;;;;1.77;1.67;;;-3.30;99.90;;;;;;5118468;28;20459;-69
2021/12/25 01:04:41;;;;;;;2.70;2.00;;;-3.30;99.90;;;;;;5119000;28;20923;-70
2021/12/25 01:07:07;;;;;;;1.60;1.50;;;-3.40;99.90;;;;;;5118639;27;20480;-70
2021/12/25 01:09:34;;;;;;;2.33;1.60;;;-3.40;99.90;;;;;;5118499;28;20510;-70
2021/12/25 01:12:03;;;;;;;2.20;2.00;;;-3.40;99.90;;;;;;5118111;28;20545;-70
2021/12/25 01:14:35;;;;;;;3.33;1.60;;;-3.40;99.90;;;;;;5118220;28;20559;-70
2021/12/25 01:17:20;;;;;;;1.73;1.63;;;-3.40;99.90;;;;;;5117873;28;20845;-70
2021/12/25 01:31:10;;;;;;;1.80;1.60;;;-3.40;99.90;;;;;;5055841;28;20890;-69
2021/12/25 01:34:09;;;;;;;2.00;1.80;;;-3.40;99.90;;;;;;5092236;28;20544;-70
2021/12/25 01:39:21;;;;;;;2.10;2.00;;;-3.50;99.90;;;;;;5089182;28;20441;-70
2021/12/25 01:47:42;;;;;;;3.80;2.30;;;-3.50;99.90;;;;;;5092249;28;20445;-69
2021/12/25 01:47:48;;;;;;;1.80;1.70;;;-3.60;99.90;;;;;;5091841;28;20463;-70
2021/12/25 01:50:17;;;;;;;2.23;1.80;;;-3.60;99.90;;;;;;5091921;28;20539;-69
2021/12/25 01:52:44;;;;;;;9.13;2.17;;;-3.60;99.90;;;;;;5091808;28;20456;-70
2021/12/25 01:55:13;;;;;;;2.70;2.07;;;-3.60;99.90;;;;;;5091339;28;20972;-69
2021/12/25 01:57:40;;;;;;;2.33;1.90;;;-3.60;99.90;;;;;;5091515;28;20909;-69
2021/12/25 02:00:14;;;;;;;2.80;2.60;;;-3.60;99.90;;;;;;5092509;28;20514;-70
2021/12/25 02:02:40;;;;;;;2.43;2.23;;;-3.60;99.90;;;;;;5091353;28;20891;-70
2021/12/25 02:05:08;;;;;;;3.23;2.23;;;-3.60;99.90;;;;;;5091884;28;20823;-70
2021/12/25 02:07:35;;;;;;;2.60;2.40;;;-3.60;99.90;;;;;;5091584;28;20481;-70
2021/12/25 02:10:02;;;;;;;5.10;2.47;;;-3.60;99.90;;;;;;5091514;28;20478;-70
2021/12/25 02:12:28;;;;;;;2.43;1.97;;;-3.60;99.90;;;;;;5090984;28;20908;-70
2021/12/25 02:14:56;;;;;;;1.83;1.73;;;-3.60;99.90;;;;;;5091573;28;20460;-70
2021/12/25 02:17:33;;;;;;;2.33;2.10;;;-3.60;99.90;;;;;;5090884;28;20452;-70
2021/12/25 02:20:12;;;;;;;1.87;1.67;;;-3.70;99.90;;;;;;5091311;28;20828;-69
2021/12/25 02:22:39;;;;;;;3.70;1.70;;;-3.70;99.90;;;;;;5090976;28;20504;-70
2021/12/25 02:25:09;;;;;;;6.10;2.20;;;-3.70;99.90;;;;;;5091422;28;20465;-69
2021/12/25 02:27:37;;;;;;;3.07;2.10;;;-3.70;99.90;;;;;;5091915;28;20502;-69
2021/12/25 02:30:05;;;;;;;3.20;1.90;;;-3.70;99.90;;;;;;5091840;28;20455;-70
2021/12/25 02:32:32;;;;;;;2.17;1.93;;;-3.70;99.90;;;;;;5094971;28;20459;-70
2021/12/25 02:35:01;;;;;;;2.83;2.00;;;-3.70;99.90;;;;;;5091709;28;20457;-70
2021/12/25 02:37:29;;;;;;;2.60;2.40;;;-3.70;99.90;;;;;;5089456;28;20947;-69
2021/12/25 02:39:56;;;;;;;2.37;2.10;;;-3.70;99.90;;;;;;5078189;28;20464;-70
2021/12/25 02:42:25;;;;;;;1.97;1.80;;;-3.70;99.90;;;;;;5078703;28;20452;-70
2021/12/25 02:44:51;;;;;;;3.73;2.10;;;-3.80;99.90;;;;;;5078595;28;20454;-70
2021/12/25 02:47:20;;;;;;;4.03;1.70;;;-3.70;99.90;;;;;;5077732;28;20513;-69
2021/12/25 02:49:48;;;;;;;2.07;1.93;;;-3.70;99.90;;;;;;5077834;28;20549;-70
2021/12/25 02:52:15;;;;;;;3.17;2.33;;;-3.70;99.90;;;;;;5077442;28;20481;-70
2021/12/25 02:54:44;;;;;;;2.87;2.67;;;-3.70;99.90;;;;;;5077425;28;20464;-70
2021/12/25 02:57:11;;;;;;;2.70;2.50;;;-3.80;99.90;;;;;;5077310;28;20795;-69
2021/12/25 02:59:40;;;;;;;3.13;2.17;;;-3.70;99.90;;;;;;5077533;28;20460;-69
2021/12/25 03:02:11;;;;;;;3.20;2.27;;;-3.70;99.90;;;;;;5077137;28;20450;-69
2021/12/25 03:04:38;;;;;;;3.23;2.60;;;-3.70;99.90;;;;;;5076971;28;20897;-70
2021/12/25 03:07:05;;;;;;;3.77;2.20;;;-3.70;99.90;;;;;;5077245;28;20556;-69
2021/12/25 03:09:33;;;;;;;2.13;1.93;;;-3.60;99.90;;;;;;5077070;28;20948;-69
2021/12/25 03:12:02;;;;;;;2.60;2.40;;;-3.70;99.90;;;;;;5077431;28;20484;-69
2021/12/25 03:14:38;;;;;;;2.10;2.00;;;-3.70;99.90;;;;;;5076728;28;20970;-69
2021/12/25 03:17:05;;;;;;;1.93;1.67;;;-3.70;99.90;;;;;;5077235;28;20435;-69
2021/12/25 03:19:33;;;;;;;2.43;2.23;;;-3.70;99.90;;;;;;5077050;28;20456;-69
2021/12/25 03:22:00;;;;;;;2.33;1.97;;;-3.70;99.90;;;;;;5076800;28;20458;-70
2021/12/25 03:24:28;;;;;;;2.47;1.93;;;-3.70;99.90;;;;;;5076592;28;20486;-70
2021/12/25 03:26:56;;;;;;;2.30;2.17;;;-3.70;99.90;;;;;;5076330;28;20970;-70
2021/12/25 03:29:25;;;;;;;2.53;2.17;;;-3.80;99.90;;;;;;5076411;28;20476;-70
2021/12/25 03:31:52;;;;;;;8.30;2.10;;;-3.70;99.90;;;;;;5076694;28;20456;-70
2021/12/25 03:34:19;;;;;;;6.03;2.70;;;-3.70;99.90;;;;;;5076918;28;20450;-70
2021/12/25 03:36:47;;;;;;;2.50;2.30;;;-3.70;99.90;;;;;;5076785;28;20465;-70
2021/12/25 03:39:14;;;;;;;4.40;2.00;;;-3.70;99.90;;;;;;5076634;28;20464;-70
2021/12/25 03:41:41;;;;;;;3.10;2.23;;;-3.80;99.90;;;;;;5076451;28;20496;-68
2021/12/25 03:44:08;;;;;;;2.63;1.97;;;-3.90;99.90;;;;;;5076564;28;20792;-70
2021/12/25 03:46:38;;;;;;;2.50;2.33;;;-3.90;99.90;;;;;;5076549;28;20465;-70
2021/12/25 03:49:10;;;;;;;1.83;1.73;;;-4.00;99.90;;;;;;5076132;28;20771;-69
2021/12/25 03:59:58;;;;;;;2.20;1.73;;;-3.90;99.90;;;;;;5076831;28;20422;-70
2021/12/25 04:02:33;;;;;;;2.40;2.20;;;-3.90;99.90;;;;;;5076893;28;20455;-68
2021/12/25 04:05:03;;;;;;;2.50;1.70;;;-4.00;99.90;;;;;;5077631;28;20501;-69
2021/12/25 04:07:54;;;;;;;4.97;2.37;;;-4.00;99.90;;;;;;5076843;28;20479;-70
2021/12/25 04:10:21;;;;;;;4.57;2.30;;;-4.00;99.90;;;;;;5077223;28;20454;-69
2021/12/25 04:12:47;;;;;;;2.77;2.57;;;-4.00;99.90;;;;;;5077454;28;20469;-70
2021/12/25 04:15:14;;;;;;;3.80;1.80;;;-3.90;99.90;;;;;;5077526;28;20460;-69
2021/12/25 04:17:42;;;;;;;2.70;2.50;;;-3.90;99.90;;;;;;5077766;28;20480;-69
2021/12/25 04:20:10;;;;;;;2.50;2.00;;;-3.90;99.90;;;;;;5078215;28;20454;-70
2021/12/25 04:22:43;;;;;;;1.93;1.80;;;-3.90;99.90;;;;;;5078759;28;20461;-70
2021/12/25 04:25:11;;;;;;;2.53;2.33;;;-3.90;99.90;;;;;;5081161;28;20752;-69
2021/12/25 04:27:38;;;;;;;1.90;1.80;;;-3.90;99.90;;;;;;5079880;28;20576;-69
2021/12/25 04:30:19;;;;;;;2.63;2.43;;;-3.90;99.90;;;;;;5080820;28;20527;-69
2021/12/25 05:03:05;;;;;;;2.67;2.23;;;-4.10;99.90;;;;;;5080611;28;20795;-69
2021/12/25 05:05:34;;;;;;;2.13;1.80;;;-4.10;99.90;;;;;;5080430;28;20445;-69
2021/12/25 05:08:04;;;;;;;2.30;2.10;;;-4.10;99.90;;;;;;5080662;28;20482;-70
2021/12/25 05:10:31;;;;;;;2.40;2.07;;;-4.10;99.90;;;;;;5080672;28;20469;-70
2021/12/25 05:12:58;;;;;;;2.47;2.30;;;-4.10;99.90;;;;;;5081608;28;20465;-70
2021/12/25 05:15:24;;;;;;;2.53;2.27;;;-4.10;99.90;;;;;;5080991;28;20484;-69
2021/12/25 05:17:51;;;;;;;2.43;1.80;;;-4.20;99.90;;;;;;5082048;28;20454;-70
2021/12/25 05:20:18;;;;;;;2.30;2.10;;;-4.20;99.90;;;;;;5081033;28;20454;-70
2021/12/25 05:22:46;;;;;;;2.47;2.27;;;-4.20;99.90;;;;;;5081055;28;20495;-70
2021/12/25 05:25:15;;;;;;;3.43;2.00;;;-4.20;99.90;;;;;;5081686;28;20457;-69
2021/12/25 05:27:42;;;;;;;1.80;1.70;;;-4.20;99.90;;;;;;5081924;28;20547;-71
2021/12/25 05:30:12;;;;;;;2.33;1.80;;;-4.20;99.90;;;;;;5081711;28;20459;-69
2021/12/25 05:32:39;;;;;;;2.70;2.10;;;-4.20;99.90;;;;;;5080654;28;20439;-68
2021/12/25 05:35:06;;;;;;;1.97;1.77;;;-4.20;99.90;;;;;;5080387;28;20567;-70
2021/12/25 05:37:36;;;;;;;5.20;1.90;;;-4.30;99.90;;;;;;5079497;28;20465;-69
2021/12/25 05:40:05;;;;;;;2.50;2.13;;;-4.30;99.90;;;;;;5079435;28;20454;-69
2021/12/25 05:42:31;;;;;;;1.73;1.40;;;-4.30;99.90;;;;;;5079176;28;20480;-70
2021/12/25 05:44:58;;;;;;;2.10;2.00;;;-4.30;99.90;;;;;;5079077;28;20458;-69
2021/12/25 05:47:25;;;;;;;2.23;2.00;;;-4.30;99.90;;;;;;5079630;28;20504;-70
2021/12/25 05:49:52;;;;;;;4.43;2.17;;;-4.30;99.90;;;;;;5079138;28;20469;-69
2021/12/25 05:52:18;;;;;;;2.43;1.73;;;-4.30;99.90;;;;;;5079437;28;20472;-69
2021/12/25 05:54:45;;;;;;;1.90;1.80;;;-4.30;99.90;;;;;;5081159;28;20473;-69
2021/12/25 05:57:13;;;;;;;5.60;2.20;;;-4.30;99.90;;;;;;5080239;28;20466;-69
2021/12/25 05:59:40;;;;;;;3.10;2.10;;;-4.30;99.90;;;;;;5078436;28;20487;-69
2021/12/25 06:02:07;;;;;;;3.13;1.67;;;-4.40;99.90;;;;;;5078739;28;20516;-70
2021/12/25 06:04:34;;;;;;;2.87;2.27;;;-4.40;99.90;;;;;;5078668;28;20523;-69
2021/12/25 06:07:01;;;;;;;3.10;1.67;;;-4.40;99.90;;;;;;5078757;28;20455;-70
2021/12/25 06:09:28;;;;;;;2.63;1.87;;;-4.30;99.90;;;;;;5077992;28;20471;-69
2021/12/25 06:11:55;;;;;;;2.00;1.90;;;-4.30;99.90;;;;;;5078505;28;20471;-69
2021/12/25 06:14:23;;;;;;;2.10;1.90;;;-4.30;99.90;;;;;;5081317;28;20484;-69
2021/12/25 06:16:51;;;;;;;2.03;1.93;;;-4.40;99.90;;;;;;5081704;28;20458;-69
2021/12/25 06:19:18;;;;;;;2.33;2.00;;;-4.40;99.90;;;;;;5082492;28;20454;-69
2021/12/25 06:21:45;;;;;;;2.47;1.77;;;-4.40;99.90;;;;;;5082425;28;20456;-69
2021/12/25 06:24:14;;;;;;;1.77;1.67;;;-4.40;99.90;;;;;;5082157;28;20476;-69
2021/12/25 06:26:41;;;;;;;4.80;2.23;;;-4.40;99.90;;;;;;5080913;28;20496;-69
2021/12/25 06:29:08;;;;;;;2.50;1.70;;;-4.30;99.90;;;;;;5080516;28;20543;-70
2021/12/25 06:31:36;;;;;;;4.70;2.43;;;-4.30;99.90;;;;;;5081517;28;20450;-69
2021/12/25 06:34:03;;;;;;;2.47;2.10;;;-4.30;99.90;;;;;;5080716;28;20972;-68
2021/12/25 06:36:30;;;;;;;2.07;1.90;;;-4.30;99.90;;;;;;5080989;28;20457;-70
2021/12/25 06:38:57;;;;;;;2.03;1.80;;;-4.20;99.90;;;;;;5081194;28;20477;-70
2021/12/25 06:41:28;;;;;;;2.27;2.00;;;-4.20;99.90;;;;;;5081172;28;20464;-70
2021/12/25 06:43:55;;;;;;;2.17;1.97;;;-4.40;99.90;;;;;;5081009;28;20470;-70
2021/12/25 06:46:21;;;;;;;2.57;2.20;;;-4.40;99.90;;;;;;5080629;28;20458;-69
2021/12/25 06:48:49;;;;;;;3.50;2.00;;;-4.40;99.90;;;;;;5081664;28;20491;-69
2021/12/25 06:51:18;;;;;;;2.27;2.03;;;-4.40;99.90;;;;;;5081513;28;20469;-71
2021/12/25 06:53:44;;;;;;;2.43;2.23;;;-4.40;99.90;;;;;;5081344;28;20460;-70
2021/12/25 06:56:11;;;;;;;3.60;2.33;;;-4.40;99.90;;;;;;5081328;28;20456;-70
2021/12/25 06:58:40;;;;;;;2.80;2.40;;;-4.40;99.90;;;;;;5080403;28;20450;-69
2021/12/25 07:01:06;;;;;;;2.47;2.27;;;-4.40;99.90;;;;;;5079616;28;20477;-69
2021/12/25 07:03:33;;;;;;;2.77;2.40;;;-4.40;99.90;;;;;;5080735;28;20450;-69
2021/12/25 07:06:02;;;;;;;5.60;3.80;;;-4.40;99.90;;;;;;5080950;28;20462;-69
2021/12/25 07:08:31;;;;;;;4.03;3.00;;;-4.40;99.90;;;;;;5081106;28;20841;-69
2021/12/25 07:10:58;;;;;;;4.33;3.33;;;-4.30;99.90;;;;;;5080979;28;20472;-69
2021/12/25 07:13:24;;;;;;;5.70;3.47;;;-4.30;99.90;;;;;;5080393;28;20466;-69
2021/12/25 07:15:51;;;;;;;3.57;2.73;;;-4.20;99.90;;;;;;5080612;28;20458;-69
2021/12/25 07:18:18;;;;;;;3.27;2.97;;;-4.10;99.90;;;;;;5080219;28;20824;-69
2021/12/25 07:20:48;;;;;;;3.03;2.53;;;-4.10;99.90;;;;;;5080750;28;20761;-69
2021/12/25 07:23:17;;;;;;;2.63;2.43;;;-4.10;99.90;;;;;;5080667;28;20435;-69
2021/12/25 07:25:47;;;;;;;2.40;2.20;;;-4.10;99.90;;;;;;5080224;28;20464;-69
2021/12/25 07:28:13;;;;;;;2.70;2.30;;;-4.20;99.90;;;;;;5079765;28;20473;-69
2021/12/25 07:30:40;;;;;;;2.57;2.37;;;-4.20;99.90;;;;;;5079925;28;20535;-69
2021/12/25 07:33:07;;;;;;;2.73;2.47;;;-4.10;99.90;;;;;;5080018;28;20454;-69
2021/12/25 07:35:33;;;;;;;3.87;2.77;;;-4.10;99.90;;;;;;5079341;28;20474;-69
2021/12/25 07:38:03;;;;;;;3.37;3.07;;;-4.10;99.90;;;;;;5079910;28;20455;-69
2021/12/25 07:40:31;;;;;;;4.00;3.70;;;-4.00;99.90;;;;;;5079428;28;20523;-69
2021/12/25 07:43:01;;;;;;;2.90;2.60;;;-4.10;99.90;;;;;;5079657;28;20458;-69
2021/12/25 07:45:28;;;;;;;3.30;3.00;;;-4.10;99.90;;;;;;5078678;28;20488;-68
2021/12/25 07:47:59;;;;;;;5.03;3.43;;;-4.10;99.90;;;;;;5078645;28;20481;-69
2021/12/25 07:50:26;;;;;;;5.10;3.30;;;-4.10;99.90;;;;;;5078346;28;20445;-70
2021/12/25 07:52:56;;;;;;;3.80;3.43;;;-4.10;99.90;;;;;;5077847;28;20648;-70
2021/12/25 07:55:23;;;;;;;5.30;3.07;;;-4.10;99.90;;;;;;5077497;28;21013;-70
2021/12/25 07:57:51;;;;;;;3.13;2.83;;;-4.10;99.90;;;;;;5077417;28;20465;-70
2021/12/25 08:00:19;;;;;;;5.43;3.30;;;-4.10;99.90;;;;;;5077108;28;20466;-70
2021/12/25 08:02:47;;;;;;;4.00;3.60;;;-4.10;99.90;;;;;;5076758;28;20565;-70
2021/12/25 08:05:13;;;;;;;11.77;3.60;;;-4.10;99.90;;;;;;5076840;28;20543;-70
2021/12/25 08:07:40;;;;;;;3.60;3.03;;;-4.10;99.90;;;;;;5076598;28;20741;-69
2021/12/25 08:10:17;;;;;;;6.03;3.43;;;-4.10;99.90;;;;;;5076622;28;20465;-70
2021/12/25 08:12:49;;;;;;;5.60;3.63;;;-4.10;99.90;;;;;;5076273;28;20446;-70
2021/12/25 08:15:19;;;;;;;3.60;3.30;;;-4.10;99.90;;;;;;5077223;28;20503;-69
2021/12/25 08:17:46;;;;;;;3.37;3.07;;;-4.10;99.90;;;;;;5076009;28;20456;-69
2021/12/25 08:20:15;;;;;;;3.37;3.07;;;-4.00;99.90;;;;;;5076704;28;20457;-69
2021/12/25 08:22:42;;;;;;;4.37;3.50;;;-4.00;99.90;;;;;;5076699;28;20483;-69
2021/12/25 08:25:10;;;;;;;3.00;2.70;;;-4.00;99.90;;;;;;5077082;28;20471;-70
2021/12/25 08:27:38;;;;;;;4.40;2.90;;;-3.90;99.90;;;;;;5076014;28;20494;-68
2021/12/25 08:30:10;;;;;;;3.93;2.80;;;-3.90;99.90;;;;;;5076409;28;20489;-69
2021/12/25 08:32:39;;;;;;;3.20;2.90;;;-3.90;99.90;;;;;;5075660;28;20466;-70
2021/12/25 08:35:06;;;;;;;3.10;2.67;;;-3.90;99.90;;;;;;5076267;28;20825;-72
2021/12/25 08:37:34;;;;;;;6.23;2.70;;;-3.90;99.90;;;;;;5075692;28;20516;-70
2021/12/25 08:40:02;;;;;;;3.90;2.40;;;-3.90;99.90;;;;;;5075825;28;20454;-70
2021/12/25 08:42:28;;;;;;;3.10;2.70;;;-3.90;99.90;;;;;;5075390;28;20469;-70
2021/12/25 08:45:06;;;;;;;2.73;2.53;;;-3.90;99.90;;;;;;5075490;28;20784;-69
2021/12/25 08:47:37;;;;;;;2.77;2.57;;;-3.90;99.90;;;;;;5075761;28;20439;-70
2021/12/25 08:50:09;;;;;;;3.90;3.60;;;-3.90;99.90;;;;;;5075167;28;20467;-69
2021/12/25 08:52:36;;;;;;;3.93;2.43;;;-3.90;99.90;;;;;;5075384;28;20452;-69
2021/12/25 08:55:06;;;;;;;3.93;2.63;;;-3.90;99.90;;;;;;5075152;28;20458;-69
2021/12/25 08:57:33;;;;;;;2.80;2.47;;;-3.90;99.90;;;;;;5075178;28;20914;-69
2021/12/25 09:00:00;;;;;;;3.53;2.53;;;-3.80;99.90;;;;;;5075393;28;20446;-70
2021/12/25 09:02:27;;;;;;;3.10;2.40;;;-3.80;99.90;;;;;;5075229;28;20765;-70
2021/12/25 09:04:54;;;;;;;5.50;2.50;;;-3.80;99.90;;;;;;5075050;28;20455;-70
2021/12/25 09:07:22;;;;;;;2.30;2.20;;;-3.80;99.90;;;;;;5074682;28;20484;-70
2021/12/25 09:09:49;;;;;;;2.87;2.60;;;-3.80;99.90;;;;;;5074440;28;20512;-70
2021/12/25 09:12:17;;;;;;;3.30;2.63;;;-3.80;99.90;;;;;;5074816;28;20460;-70
2021/12/25 09:14:44;;;;;;;3.50;3.20;;;-3.70;99.90;;;;;;5074931;28;20488;-70
2021/12/25 09:17:12;;;;;;;2.70;2.40;;;-3.70;99.90;;;;;;5074642;28;20462;-70
2021/12/25 09:19:39;;;;;;;2.50;2.30;;;-3.60;99.90;;;;;;5074656;28;20479;-70
2021/12/25 09:22:08;;;;;;;4.80;2.37;;;-3.50;99.90;;;;;;5074884;28;20459;-70
2021/12/25 09:24:40;;;;;;;4.00;3.60;;;-3.60;99.90;;;;;;5075367;28;20468;-70
2021/12/25 09:27:09;;;;;;;3.80;3.00;;;-3.50;99.90;;;;;;5075039;28;20492;-69
2021/12/25 09:29:36;;;;;;;5.20;3.60;;;-3.50;99.90;;;;;;5075024;28;20484;-70
2021/12/25 09:32:04;;;;;;;3.40;3.10;;;-3.40;99.90;;;;;;5074824;28;20464;-69
2021/12/25 09:34:34;;;;;;;3.27;2.90;;;-3.30;99.90;;;;;;5074595;28;20455;-69
2021/12/25 09:37:00;;;;;;;3.50;3.27;;;-3.20;99.90;;;;;;5074479;28;20926;-70
2021/12/25 09:39:27;;;;;;;3.97;3.53;;;-3.30;99.90;;;;;;5074657;28;20820;-68
2021/12/25 09:41:55;;;;;;;7.83;4.13;;;-3.30;99.90;;;;;;5074961;28;20463;-70
2021/12/25 09:44:22;;;;;;;5.20;3.63;;;-3.20;99.90;;;;;;5074648;28;20468;-70
2021/12/25 09:46:48;;;;;;;4.97;4.00;;;-3.20;99.90;;;;;;5074313;28;20464;-70
2021/12/25 09:49:15;;;;;;;3.97;3.13;;;-3.10;99.90;;;;;;5077686;28;20496;-71
2021/12/25 09:51:42;;;;;;;6.03;4.03;;;-3.10;99.90;;;;;;5078424;28;20454;-69
2021/12/25 09:54:11;;;;;;;4.73;3.37;;;-3.00;99.90;;;;;;5078120;28;20517;-69
2021/12/25 09:56:44;;;;;;;5.77;3.40;;;-2.90;99.90;;;;;;5078170;28;20471;-69
2021/12/25 09:59:12;;;;;;;4.87;3.33;;;-2.90;99.90;;;;;;5078789;28;20437;-70
2021/12/25 10:01:44;;;;;;;4.93;3.17;;;-2.90;99.90;;;;;;5078291;28;20460;-70
2021/12/25 10:04:32;;;;;;;5.50;3.30;;;-2.80;99.90;;;;;;5078113;28;20917;-71
2021/12/25 10:06:59;;;;;;;3.70;3.40;;;-2.80;99.90;;;;;;5078381;28;20524;-69
2021/12/25 10:09:26;;;;;;;3.33;3.03;;;-2.70;99.90;;;;;;5077977;28;20494;-70
2021/12/25 10:12:02;;;;;;;5.63;3.30;;;-2.60;99.90;;;;;;5077875;28;20467;-70
2021/12/25 10:14:31;;;;;;;4.40;3.30;;;-2.60;99.90;;;;;;5077944;28;20454;-70
2021/12/25 10:16:58;;;;;;;4.93;3.50;;;-2.50;99.90;;;;;;5077635;28;20464;-70
2021/12/25 10:19:31;;;;;;;3.50;3.00;;;-2.40;99.90;;;;;;5077966;28;20578;-69
2021/12/25 10:22:07;;;;;;;4.40;4.00;;;-2.40;99.90;;;;;;5077532;28;20445;-70
2021/12/25 10:24:41;;;;;;;3.40;3.10;;;-2.40;99.90;;;;;;5077894;28;20490;-70
2021/12/25 10:27:14;;;;;;;10.10;6.73;;;-2.40;99.90;;;;;;5077497;28;20608;-70
2021/12/25 10:29:43;;;;;;;3.60;3.30;;;-2.30;99.90;;;;;;5077276;28;20959;-69
2021/12/25 10:32:19;;;;;;;4.37;3.50;;;-2.30;99.90;;;;;;5077684;28;20464;-69
2021/12/25 10:34:47;;;;;;;3.30;3.00;;;-2.20;99.90;;;;;;5077743;28;20818;-69
2021/12/25 10:37:17;;;;;;;5.93;2.70;;;-2.20;99.90;;;;;;5077267;28;20473;-69
2021/12/25 10:39:46;;;;;;;4.73;3.07;;;-2.20;99.90;;;;;;5077486;28;20469;-70
2021/12/25 10:42:17;;;;;;;3.27;2.97;;;-2.10;99.90;;;;;;5076955;28;20813;-69
2021/12/25 10:44:48;;;;;;;3.70;3.00;;;-2.10;99.90;;;;;;5077420;28;20770;-69
2021/12/25 10:47:16;;;;;;;3.73;2.37;;;-2.00;99.90;;;;;;5077124;28;20453;-71
2021/12/25 10:49:46;;;;;;;2.53;2.33;;;-2.00;99.90;;;;;;5077121;28;20480;-70
2021/12/25 10:52:19;;;;;;;3.20;2.63;;;-2.00;99.90;;;;;;5077449;28;20454;-70
2021/12/25 10:54:48;;;;;;;4.60;3.10;;;-2.00;99.90;;;;;;5077361;28;20507;-70
2021/12/25 10:57:31;;;;;;;7.17;2.93;;;-2.00;99.90;;;;;;5076951;28;20763;-70
2021/12/25 11:00:00;;;;;;;6.50;3.03;;;-1.90;99.90;;;;;;5076562;28;20439;-70
2021/12/25 11:02:32;;;;;;;5.27;2.43;;;-1.80;99.90;;;;;;5077447;28;20468;-70
2021/12/25 11:04:59;;;;;;;3.30;2.33;;;-1.90;99.90;;;;;;5077050;28;20484;-70
2021/12/25 11:07:26;;;;;;;3.63;2.90;;;-1.90;99.90;;;;;;5076809;28;20465;-70
2021/12/25 11:10:06;;;;;;;4.23;3.80;;;-1.80;99.90;;;;;;5076968;28;20481;-70
2021/12/25 11:12:35;;;;;;;3.80;2.17;;;-1.70;99.90;;;;;;5077397;28;20445;-70
2021/12/25 11:15:12;;;;;;;2.97;2.60;;;-1.60;99.90;;;;;;5076756;28;20457;-70
2021/12/25 11:17:40;;;;;;;5.37;2.77;;;-1.70;99.90;;;;;;5076835;28;20452;-69
2021/12/25 11:20:16;;;;;;;3.57;2.33;;;-1.70;99.90;;;;;;5076507;28;20456;-70
2021/12/25 11:22:49;;;;;;;6.43;2.23;;;-1.60;99.90;;;;;;5076658;28;20441;-70
2021/12/25 11:25:18;;;;;;;5.23;2.13;;;-1.60;99.90;;;;;;5077139;28;20465;-70
2021/12/25 11:27:45;;;;;;;1.93;1.83;;;-1.60;99.90;;;;;;5076048;28;21023;-70
2021/12/25 11:30:14;;;;;;;2.43;2.17;;;-1.50;99.90;;;;;;5076697;28;20485;-70
2021/12/25 11:32:41;;;;;;;3.10;2.77;;;-1.40;99.90;;;;;;5076754;28;20462;-69
2021/12/25 11:35:10;;;;;;;4.80;1.60;;;-1.30;99.90;;;;;;5076421;28;20466;-70
2021/12/25 11:37:40;;;;;;;6.70;1.87;;;-1.40;99.90;;;;;;5076155;28;20458;-70
2021/12/25 11:40:12;;;;;;;2.50;2.03;;;-1.30;99.90;;;;;;5076276;28;20458;-71
2021/12/25 11:42:43;;;;;;;2.33;2.13;;;-1.30;99.90;;;;;;5076262;28;20445;-70
2021/12/25 11:45:17;;;;;;;2.13;1.93;;;-1.20;99.90;;;;;;5076189;28;20469;-70
2021/12/25 11:47:47;;;;;;;5.03;2.00;;;-1.30;99.90;;;;;;5076294;28;20449;-70
2021/12/25 11:50:17;;;;;;;4.90;2.20;;;-1.20;99.90;;;;;;5075968;28;20664;-70
2021/12/25 11:52:50;;;;;;;3.03;2.43;;;-1.10;99.90;;;;;;5075711;28;20919;-70
2021/12/25 11:55:32;;;;;;;4.70;2.40;;;-1.00;99.90;;;;;;5076231;28;20913;-70
2021/12/25 11:58:06;;;;;;;4.20;2.57;;;-1.00;99.90;;;;;;5076095;28;20824;-70
2021/12/25 12:00:43;;;;;;;3.30;3.00;;;-0.90;99.90;;;;;;5075926;28;20473;-70
2021/12/25 12:03:30;;;;;;;4.50;2.70;;;-0.80;99.90;;;;;;5076020;28;20439;-70
2021/12/25 12:05:59;;;;;;;3.00;2.50;;;-0.70;99.90;;;;;;5075697;28;20461;-70
2021/12/25 12:08:26;;;;;;;2.80;2.10;;;-0.10;99.90;;;;;;5075697;28;20511;-70
2021/12/25 12:11:00;;;;;;;3.50;2.17;;;0.90;99.90;;;;;;5074743;28;20478;-70
2021/12/25 12:13:29;;;;;;;2.47;1.60;;;2.20;99.90;;;;;;5075594;28;20453;-70
2021/12/25 12:16:00;;;;;;;3.20;2.13;;;3.50;99.90;;;;;;5075566;28;20525;-70
2021/12/25 12:18:37;;;;;;;3.60;1.83;;;4.80;99.90;;;;;;5075486;28;20930;-70
2021/12/25 12:21:09;;;;;;;2.07;1.23;;;5.70;99.90;;;;;;5076035;28;20482;-71
2021/12/25 12:23:46;;;;;;;1.87;1.40;;;6.40;99.90;;;;;;5075506;28;20439;-71
2021/12/25 12:26:13;;;;;;;2.37;1.30;;;7.30;99.20;;;;;;5075419;28;20546;-70
2021/12/25 12:28:49;;;;;;;2.10;1.40;;;8.20;93.10;;;;;;5075786;28;20503;-70
2021/12/25 12:31:41;;;;;;;2.37;1.50;;;8.90;86.50;;;;;;5075809;28;20465;-70
2021/12/25 12:34:34;;;;;;;2.13;1.57;;;9.20;74.80;;;;;;5076132;28;20904;-71
2021/12/25 12:37:26;;;;;;;3.67;1.40;;;9.90;73.40;;;;;;5076795;28;20469;-70
2021/12/25 12:40:27;;;;;;;1.60;1.30;;;10.20;63.50;;;;;;5076392;28;20465;-70
2021/12/25 12:43:01;;;;;;;2.10;1.30;;;10.30;58.30;;;;;;5083608;28;20438;-70
2021/12/25 12:45:30;;;;;;;4.93;1.23;;;10.30;56.10;;;;;;5086282;28;20438;-70
2021/12/25 12:48:17;;;;;;;1.80;1.43;;;10.50;56.10;;;;;;5078854;28;20454;-70
2021/12/25 12:50:46;;;;;;;3.33;1.50;;;11.10;56.20;;;;;;5079615;28;20478;-70
2021/12/25 12:53:13;;;;;;;1.90;1.30;;;11.50;53.20;;;;;;5077965;28;20515;-70
2021/12/25 12:55:43;;;;;;;2.23;1.47;;;11.80;52.90;;;;;;5077087;28;20879;-70
2021/12/25 12:58:16;;;;;;;2.33;1.37;;;12.10;50.00;;;;;;5075121;28;20454;-70
2021/12/25 13:00:46;;;;;;;3.00;1.97;;;12.20;49.10;;;;;;5076009;28;20438;-70
2021/12/25 13:03:15;;;;;;;1.73;1.30;;;12.40;47.50;;;;;;5075498;28;20465;-70
2021/12/25 13:05:44;;;;;;;1.97;1.30;;;12.60;48.10;;;;;;5075090;28;20458;-70
2021/12/25 13:08:15;;;;;;;3.27;1.40;;;12.70;46.00;;;;;;5075250;28;20454;-70
2021/12/25 13:10:50;;;;;;;2.20;1.60;;;12.90;45.50;;;;;;5074533;28;20550;-70
2021/12/25 13:13:20;;;;;;;2.40;1.53;;;12.90;44.20;;;;;;5074552;28;20477;-70
2021/12/25 13:15:49;;;;;;;1.70;1.30;;;12.10;42.60;;;;;;5074562;28;20541;-70
2021/12/25 13:18:26;;;;;;;2.40;2.00;;;12.20;45.10;;;;;;5074743;28;20454;-71
2021/12/25 13:20:53;;;;;;;2.17;1.87;;;12.00;45.10;;;;;;5074615;28;20480;-70
2021/12/25 13:23:25;;;;;;;4.27;1.73;;;11.20;44.70;;;;;;5074404;28;20458;-70
2021/12/25 13:25:58;;;;;;;2.27;2.03;;;10.90;44.60;;;;;;5074273;28;20439;-70
2021/12/25 13:28:27;;;;;;;2.53;2.10;;;9.90;46.70;;;;;;5074657;28;20438;-70
2021/12/25 13:30:59;;;;;;;7.03;2.90;;;10.00;47.10;;;;;;5074593;28;20481;-70
2021/12/25 13:33:32;;;;;;;5.37;3.00;;;9.50;48.80;;;;;;5074108;28;20442;-70
2021/12/25 13:36:02;;;;;;;6.20;2.47;;;8.40;49.60;;;;;;5074475;28;20442;-70
2021/12/25 13:38:29;;;;;;;3.50;2.20;;;7.50;51.00;;;;;;5073947;28;20449;-69
2021/12/25 13:40:56;;;;;;;3.70;1.73;;;6.40;52.50;;;;;;5074540;28;20473;-70
2021/12/25 13:43:28;;;;;;;3.67;2.20;;;5.30;54.30;;;;;;5074405;28;20585;-70
2021/12/25 13:45:58;;;;;;;6.10;2.40;;;4.50;57.00;;;;;;5074328;28;20503;-70
2021/12/25 13:48:26;;;;;;;5.70;3.40;;;3.70;59.90;;;;;;5074396;28;20454;-71
2021/12/25 13:51:02;;;;;;;3.83;2.60;;;3.10;66.10;;;;;;5074304;28;20788;-71
2021/12/25 13:53:29;;;;;;;6.30;3.50;;;2.50;73.40;;;;;;5074363;28;20449;-70
2021/12/25 13:55:57;;;;;;;3.30;2.50;;;2.00;80.80;;;;;;5074838;28;20820;-70